Time;durP1;ratioP1;P1;durP2;ratioP2;P2;SDS_P1;SDS_P2;PMS_P1;PMS_P2;Temp;Humidity;BMP_temperature;BMP_pressure;BME280_temperature;BME280_humidity;BME280_pressure;Samples;Min_cycle;Max_cycle;Signal;HPM_P1;HPM_P2
2021/08/08 00:01:02;;;;;;;16.45;7.40;;;;;;;22.72;62.75;99084.53;5085546;28;20461;-61
2021/08/08 00:03:28;;;;;;;11.35;7.07;;;;;;;22.60;62.81;99067.97;5086372;28;20048;-62
2021/08/08 00:05:54;;;;;;;11.57;6.47;;;;;;;22.73;62.62;99091.50;5088919;28;20419;-62
2021/08/08 00:08:20;;;;;;;16.50;6.72;;;;;;;22.73;62.29;99088.88;5089002;28;20051;-58
2021/08/08 00:10:47;;;;;;;17.48;7.05;;;;;;;22.73;62.25;99091.50;5089401;28;20048;-61
2021/08/08 00:13:14;;;;;;;13.75;6.72;;;;;;;22.75;62.00;99097.50;5088362;28;20127;-61
2021/08/08 00:15:40;;;;;;;11.48;6.30;;;;;;;22.77;61.86;99106.13;5089633;28;20041;-62
2021/08/08 00:18:06;;;;;;;13.10;6.32;;;;;;;22.70;61.70;99095.28;5088770;28;20044;-62
2021/08/08 00:20:32;;;;;;;17.20;7.10;;;;;;;22.77;61.75;99100.84;5089639;28;20044;-62
2021/08/08 00:22:58;;;;;;;16.88;7.30;;;;;;;22.79;61.49;99096.25;5089661;28;20083;-62
2021/08/08 00:25:24;;;;;;;23.83;7.00;;;;;;;22.81;61.28;99107.53;5089874;28;20188;-61
2021/08/08 00:27:51;;;;;;;14.18;6.90;;;;;;;22.84;61.45;99117.00;5088382;28;20059;-60
2021/08/08 00:30:17;;;;;;;17.40;6.38;;;;;;;22.84;60.88;99114.34;5088784;28;20089;-61
2021/08/08 00:32:43;;;;;;;14.65;6.75;;;;;;;22.85;60.93;99114.22;5089790;28;20036;-61
2021/08/08 00:35:19;;;;;;;12.60;6.80;;;;;;;22.84;60.66;99115.19;5088825;28;20423;-61
2021/08/08 00:37:48;;;;;;;14.50;6.60;;;;;;;22.85;60.66;99126.63;5088314;28;20040;-61
2021/08/08 00:40:17;;;;;;;12.48;6.50;;;;;;;22.84;60.41;99130.25;5088191;28;20036;-61
2021/08/08 00:42:46;;;;;;;11.30;5.97;;;;;;;22.84;60.31;99136.41;5088739;28;20113;-61
2021/08/08 00:45:17;;;;;;;18.73;6.40;;;;;;;22.66;60.24;99103.66;5090265;28;20051;-61
2021/08/08 00:47:45;;;;;;;12.65;6.40;;;;;;;22.82;60.42;99126.94;5092065;28;20047;-61
2021/08/08 00:50:14;;;;;;;11.65;6.28;;;;;;;22.82;60.46;99125.09;5092210;28;20138;-62
2021/08/08 00:52:40;;;;;;;11.95;6.75;;;;;;;22.83;61.01;99096.78;5075150;28;20043;-62
2021/08/08 00:55:07;;;;;;;19.70;7.43;;;;;;;22.82;61.99;99092.47;5092210;28;20039;-62
2021/08/08 00:57:33;;;;;;;16.08;6.70;;;;;;;22.78;62.32;99107.81;5091842;28;20534;-60
2021/08/08 01:00:03;;;;;;;18.35;6.72;;;;;;;22.68;61.90;99109.63;5091493;28;20130;-60
2021/08/08 01:02:31;;;;;;;14.07;6.90;;;;;;;22.73;61.03;99131.28;5075029;28;20459;-61
2021/08/08 01:05:03;;;;;;;14.27;6.43;;;;;;;22.74;60.47;99130.28;5075205;28;20047;-61
2021/08/08 01:07:38;;;;;;;14.13;6.38;;;;;;;22.73;61.00;99120.66;5091748;28;20088;-61
2021/08/08 01:10:05;;;;;;;11.63;6.30;;;;;;;22.60;61.21;99105.06;5091496;28;20104;-61
2021/08/08 01:12:37;;;;;;;14.13;6.63;;;;;;;22.71;61.16;99120.00;5058933;28;20430;-61
2021/08/08 01:15:03;;;;;;;18.73;6.60;;;;;;;22.69;61.19;99120.09;5074857;28;20097;-61
2021/08/08 01:17:29;;;;;;;18.05;6.75;;;;;;;22.68;61.37;99120.22;5091789;28;20047;-61
2021/08/08 01:20:03;;;;;;;15.55;7.25;;;;;;;22.66;61.71;99117.72;5074906;28;20042;-61
2021/08/08 01:22:37;;;;;;;;;;;;;;;22.63;61.68;99120.66;5091992;28;20127;-61
2021/08/08 01:25:06;;;;;;;13.43;6.18;;;;;;;22.60;61.64;99131.56;5091395;28;19923;-61
2021/08/08 01:27:32;;;;;;;12.02;6.20;;;;;;;22.57;61.68;99136.28;5091465;28;20135;-62
2021/08/08 01:29:58;;;;;;;16.58;6.47;;;;;;;22.48;62.38;99121.25;5070956;28;20205;-62
2021/08/08 01:32:25;;;;;;;15.65;6.53;;;;;;;22.54;61.89;99132.13;5071421;28;20071;-62
2021/08/08 01:34:51;;;;;;;14.40;5.95;;;;;;;22.53;61.66;99129.59;5072404;28;20043;-61
2021/08/08 01:37:21;;;;;;;15.60;6.18;;;;;;;22.51;61.77;99142.97;5088159;28;20432;-60
2021/08/08 01:40:09;;;;;;;10.60;6.25;;;;;;;22.51;61.82;99144.78;5090685;28;20048;-59
2021/08/08 01:42:38;;;;;;;16.92;6.88;;;;;;;22.51;61.89;99144.78;5074532;28;20040;-61
2021/08/08 01:45:05;;;;;;;13.90;6.45;;;;;;;22.50;61.47;99151.94;5091133;28;20040;-62
2021/08/08 01:47:36;;;;;;;11.63;6.20;;;;;;;22.50;61.27;99159.88;5091076;28;20043;-62
2021/08/08 01:50:11;;;;;;;11.30;5.93;;;;;;;22.49;61.26;99171.44;5075200;28;20046;-61
2021/08/08 01:52:41;;;;;;;14.70;5.68;;;;;;;22.47;61.31;99168.09;5091050;28;20530;-62
2021/08/08 01:55:10;;;;;;;11.70;5.53;;;;;;;22.45;61.48;99167.41;5074306;28;20043;-60
2021/08/08 01:57:47;;;;;;;12.15;5.95;;;;;;;22.45;61.48;99169.22;5090647;28;20056;-61
2021/08/08 02:00:20;;;;;;;14.77;6.18;;;;;;;22.42;62.32;99157.06;5090386;28;20072;-62
2021/08/08 02:02:52;;;;;;;13.50;6.88;;;;;;;22.37;63.50;99176.03;5090375;28;20044;-62
2021/08/08 02:05:30;;;;;;;18.63;5.63;;;;;;;22.30;63.71;99200.56;5090904;28;20168;-62
2021/08/08 02:07:58;;;;;;;14.07;6.32;;;;;;;22.21;63.71;99194.28;5090671;28;20040;-62
2021/08/08 02:10:27;;;;;;;13.88;6.05;;;;;;;22.13;64.51;99167.69;5075688;28;20044;-61
2021/08/08 02:12:54;;;;;;;11.57;5.82;;;;;;;22.05;65.29;99171.97;5053862;28;20036;-61
2021/08/08 02:15:20;;;;;;;11.40;5.88;;;;;;;22.05;65.49;99153.44;5070372;28;20044;-59
2021/08/08 02:17:54;;;;;;;12.45;5.85;;;;;;;22.01;66.67;99142.31;5070112;28;20040;-62
2021/08/08 02:20:22;;;;;;;16.05;6.30;;;;;;;21.90;67.55;99184.75;5084015;28;20415;-61
2021/08/08 02:22:55;;;;;;;12.10;6.35;;;;;;;21.89;68.16;99218.31;5090435;28;20039;-61
2021/08/08 02:25:23;;;;;;;12.23;6.00;;;;;;;21.74;67.57;99185.25;5090465;28;20051;-61
2021/08/08 02:27:50;;;;;;;18.58;6.32;;;;;;;21.83;67.83;99202.97;5090325;28;20427;-61
2021/08/08 02:30:29;;;;;;;16.95;6.72;;;;;;;21.80;67.83;99215.66;5089856;28;20337;-61
2021/08/08 02:32:57;;;;;;;10.57;5.97;;;;;;;21.78;68.93;99207.00;5090286;28;20040;-62
2021/08/08 02:35:23;;;;;;;13.13;6.72;;;;;;;21.79;68.44;99203.38;5090321;28;20051;-63
2021/08/08 02:37:49;;;;;;;12.48;6.22;;;;;;;21.83;69.40;99234.72;5090145;28;20048;-62
2021/08/08 02:40:15;;;;;;;11.05;6.10;;;;;;;21.81;69.43;99249.94;5072896;28;20127;-61
2021/08/08 02:42:43;;;;;;;12.75;5.97;;;;;;;21.80;68.63;99256.19;5089988;28;20043;-61
2021/08/08 02:45:09;;;;;;;13.98;5.82;;;;;;;21.82;67.96;99261.34;5089784;28;20040;-59
2021/08/08 02:47:35;;;;;;;12.02;6.07;;;;;;;21.72;67.64;99232.19;5089976;28;20542;-60
2021/08/08 02:50:05;;;;;;;12.15;5.60;;;;;;;21.75;67.55;99215.22;5089664;28;20090;-60
2021/08/08 02:52:31;;;;;;;13.68;6.13;;;;;;;21.88;67.62;99242.25;5072787;28;20143;-62
2021/08/08 02:55:01;;;;;;;13.48;5.93;;;;;;;21.86;67.74;99236.28;5089837;28;20051;-61
2021/08/08 02:57:28;;;;;;;16.48;7.07;;;;;;;21.85;67.92;99229.31;5089397;28;20511;-62
2021/08/08 02:59:56;;;;;;;15.57;7.07;;;;;;;21.85;68.89;99224.00;5073006;28;20065;-61
2021/08/08 03:02:21;;;;;;;15.32;5.55;;;;;;;21.75;69.39;99197.53;5090695;28;20044;-62
2021/08/08 03:04:47;;;;;;;14.05;7.07;;;;;;;21.82;69.28;99226.94;5089633;28;20423;-61
2021/08/08 03:07:15;;;;;;;19.45;6.60;;;;;;;21.83;70.36;99218.00;5072297;28;20121;-62
2021/08/08 03:09:41;;;;;;;16.85;7.15;;;;;;;21.84;71.13;99215.25;5089100;28;20047;-61
2021/08/08 03:12:07;;;;;;;13.43;6.70;;;;;;;21.82;72.93;99216.34;5072541;28;20400;-62
2021/08/08 03:14:38;;;;;;;11.10;6.40;;;;;;;21.82;73.81;99211.06;5089482;28;20116;-60
2021/08/08 03:17:05;;;;;;;11.40;6.75;;;;;;;21.83;73.98;99202.13;5089316;28;20089;-63
2021/08/08 03:19:31;;;;;;;20.52;9.18;;;;;;;21.72;74.17;99186.38;5089147;28;20036;-61
2021/08/08 03:21:57;;;;;;;12.73;8.23;;;;;;;21.80;75.71;99207.72;5088994;28;20051;-61
2021/08/08 03:24:23;;;;;;;12.25;6.45;;;;;;;21.78;75.13;99213.13;5089371;28;20031;-61
2021/08/08 03:26:50;;;;;;;20.25;10.27;;;;;;;21.79;74.35;99213.97;5089068;28;20044;-61
2021/08/08 03:29:17;;;;;;;14.98;6.80;;;;;;;21.79;75.41;99213.97;5089002;28;20123;-61
2021/08/08 03:31:45;;;;;;;17.05;6.88;;;;;;;21.79;75.51;99228.03;5088758;28;20035;-62
2021/08/08 03:34:13;;;;;;;10.40;6.53;;;;;;;21.76;73.81;99230.13;5088997;28;20050;-61
2021/08/08 03:36:39;;;;;;;13.02;5.78;;;;;;;21.79;72.34;99237.78;5089003;28;20542;-60
2021/08/08 03:39:06;;;;;;;12.52;7.05;;;;;;;21.83;72.13;99239.19;5086014;28;20043;-62
2021/08/08 03:41:32;;;;;;;13.25;6.38;;;;;;;21.85;72.42;99227.50;5089837;28;20039;-62
2021/08/08 03:43:58;;;;;;;18.80;8.93;;;;;;;21.88;73.81;99224.56;5089928;28;20039;-62
2021/08/08 03:46:24;;;;;;;14.65;7.03;;;;;;;21.90;75.40;99209.41;5089135;28;20143;-62
2021/08/08 03:48:51;;;;;;;15.40;7.55;;;;;;;21.85;76.39;99201.03;5088762;28;20036;-62
2021/08/08 03:51:16;;;;;;;17.80;7.40;;;;;;;21.86;77.71;99205.38;5089763;28;20522;-62
2021/08/08 03:53:42;;;;;;;12.55;7.63;;;;;;;21.87;78.33;99203.56;5071961;28;20562;-62
2021/08/08 03:56:08;;;;;;;15.23;8.82;;;;;;;21.87;79.22;99201.75;5088658;28;20126;-60
2021/08/08 03:58:35;;;;;;;16.88;8.23;;;;;;;21.87;80.12;99198.25;5088201;28;20568;-62
2021/08/08 04:01:03;;;;;;;14.30;7.55;;;;;;;21.66;80.75;99161.31;5088749;28;20075;-61
2021/08/08 04:03:31;;;;;;;16.75;7.82;;;;;;;21.86;81.03;99200.06;5090041;28;20800;-61
2021/08/08 04:05:57;;;;;;;16.58;8.52;;;;;;;21.87;82.02;99195.63;5090185;28;20427;-61
2021/08/08 04:08:23;;;;;;;12.48;7.85;;;;;;;21.87;82.63;99193.81;5088319;28;20036;-62
2021/08/08 04:10:52;;;;;;;10.23;7.68;;;;;;;21.87;82.45;99199.09;5069703;28;20090;-62
2021/08/08 04:13:18;;;;;;;17.10;8.02;;;;;;;21.78;82.22;99185.81;5068387;28;20048;-62
2021/08/08 04:15:44;;;;;;;17.38;8.27;;;;;;;21.91;82.25;99199.66;5068648;28;20131;-63
2021/08/08 04:18:12;;;;;;;11.52;7.00;;;;;;;21.96;81.41;99208.06;5085125;28;20086;-63
2021/08/08 04:20:40;;;;;;;12.95;7.65;;;;;;;21.98;81.61;99231.75;5089842;28;20131;-61
2021/08/08 04:23:07;;;;;;;13.65;7.65;;;;;;;21.99;81.51;99234.25;5075691;28;20040;-63
2021/08/08 04:25:34;;;;;;;16.03;7.73;;;;;;;22.00;80.12;99233.28;5092665;28;20039;-62
2021/08/08 04:28:01;;;;;;;12.27;6.80;;;;;;;22.03;78.36;99233.03;5092583;28;20048;-61
2021/08/08 04:30:28;;;;;;;16.15;7.00;;;;;;;22.03;78.21;99248.91;5093663;28;20040;-60
2021/08/08 04:32:54;;;;;;;18.05;7.20;;;;;;;22.05;77.62;99240.81;5092635;28;20036;-62
2021/08/08 04:35:20;;;;;;;15.80;7.90;;;;;;;22.13;77.16;99246.28;5092321;28;20837;-62
2021/08/08 04:37:49;;;;;;;13.40;7.32;;;;;;;22.20;76.64;99242.94;5086052;28;20465;-62
2021/08/08 04:40:15;;;;;;;14.55;7.57;;;;;;;22.17;76.34;99224.69;5081258;28;20052;-62
2021/08/08 04:42:41;;;;;;;11.38;6.72;;;;;;;22.36;75.63;99250.34;5092397;28;20127;-62
2021/08/08 04:45:08;;;;;;;13.95;6.55;;;;;;;22.43;74.18;99250.63;5075265;28;20533;-61
2021/08/08 04:47:34;;;;;;;17.75;7.28;;;;;;;22.49;73.20;99253.56;5091718;28;20128;-62
2021/08/08 04:50:01;;;;;;;11.15;6.20;;;;;;;22.52;72.61;99249.81;5091881;28;20055;-62
2021/08/08 04:52:38;;;;;;;11.73;6.55;;;;;;;22.50;71.34;99249.13;5091513;28;20075;-62
2021/08/08 04:55:06;;;;;;;11.15;7.05;;;;;;;22.39;70.73;99242.97;5075183;28;20131;-62
2021/08/08 04:57:31;;;;;;;11.18;6.88;;;;;;;22.44;70.01;99258.47;5091971;28;20519;-62
2021/08/08 04:59:58;;;;;;;12.10;6.88;;;;;;;22.31;70.21;99234.03;5091469;28;20465;-64
2021/08/08 05:02:24;;;;;;;13.05;7.10;;;;;;;22.50;70.62;99257.91;5091555;28;20122;-62
2021/08/08 05:04:50;;;;;;;12.52;6.25;;;;;;;22.54;70.41;99264.59;5074740;28;20067;-63
2021/08/08 05:07:18;;;;;;;20.65;7.32;;;;;;;22.52;69.74;99271.84;5091092;28;20452;-61
2021/08/08 05:09:44;;;;;;;13.40;6.35;;;;;;;22.47;69.63;99279.34;5092789;28;20044;-60
2021/08/08 05:12:10;;;;;;;13.48;7.03;;;;;;;22.45;69.65;99278.69;5091370;28;20039;-61
2021/08/08 05:14:41;;;;;;;12.30;6.80;;;;;;;22.23;70.05;99255.06;5091231;28;20040;-62
2021/08/08 05:17:07;;;;;;;15.48;8.00;;;;;;;22.43;70.37;99275.31;5092210;28;20105;-61
2021/08/08 05:19:33;;;;;;;11.77;7.10;;;;;;;22.43;70.80;99270.03;5091153;28;20043;-62
2021/08/08 05:22:00;;;;;;;13.00;7.53;;;;;;;22.41;71.58;99271.97;5091226;28;20039;-60
2021/08/08 05:24:28;;;;;;;14.40;7.65;;;;;;;22.45;72.83;99268.09;5091331;28;20554;-61
2021/08/08 05:26:56;;;;;;;12.57;7.47;;;;;;;22.48;73.92;99278.41;5091415;28;20051;-62
2021/08/08 05:29:24;;;;;;;12.52;7.40;;;;;;;22.55;74.67;99292.78;5071152;28;20036;-60
2021/08/08 05:31:51;;;;;;;16.42;7.07;;;;;;;22.67;74.69;99285.50;5070560;28;20542;-61
2021/08/08 05:34:17;;;;;;;16.60;7.75;;;;;;;22.83;73.58;99279.69;5091004;28;20048;-59
2021/08/08 05:36:43;;;;;;;12.68;7.53;;;;;;;22.97;72.24;99280.13;5091221;28;20511;-61
2021/08/08 05:39:10;;;;;;;14.57;7.88;;;;;;;23.12;72.83;99275.22;5088192;28;20472;-61
2021/08/08 05:41:36;;;;;;;15.00;7.25;;;;;;;23.32;71.96;99274.19;5092193;28;20077;-61
2021/08/08 05:44:02;;;;;;;14.15;8.30;;;;;;;23.55;72.09;99266.75;5092426;28;20035;-61
2021/08/08 05:46:28;;;;;;;12.18;7.00;;;;;;;23.75;68.83;99273.66;5090978;28;20059;-60
2021/08/08 05:48:53;;;;;;;9.43;7.00;;;;;;;23.79;68.44;99276.84;5090290;28;20511;-60
2021/08/08 05:51:21;;;;;;;13.93;7.43;;;;;;;23.74;67.95;99277.31;5090353;28;20044;-61
2021/08/08 05:53:47;;;;;;;12.95;7.10;;;;;;;23.69;67.34;99274.25;5090201;28;20066;-61
2021/08/08 05:56:13;;;;;;;15.93;7.70;;;;;;;23.60;67.43;99275.13;5090516;28;20040;-62
2021/08/08 05:58:41;;;;;;;15.98;7.57;;;;;;;23.51;67.32;99275.97;5091657;28;20052;-62
2021/08/08 06:01:07;;;;;;;17.92;7.93;;;;;;;23.39;67.49;99277.13;5097021;28;20590;-62
2021/08/08 06:03:33;;;;;;;12.63;7.65;;;;;;;23.36;68.02;99290.66;5091864;28;20515;-61
2021/08/08 06:05:59;;;;;;;14.00;8.23;;;;;;;23.26;68.87;99309.25;5069565;28;20039;-61
2021/08/08 06:08:25;;;;;;;14.20;7.22;;;;;;;23.17;69.44;99310.94;5087157;28;20409;-61
2021/08/08 06:10:51;;;;;;;9.50;7.40;;;;;;;23.10;69.96;99317.78;5100797;28;20035;-61
2021/08/08 06:13:18;;;;;;;14.38;7.63;;;;;;;23.04;69.16;99328.09;5093039;28;20066;-60
2021/08/08 06:15:49;;;;;;;10.88;7.65;;;;;;;22.96;69.96;99347.38;5077237;28;20062;-60
2021/08/08 06:18:16;;;;;;;13.27;8.07;;;;;;;22.94;70.93;99353.78;5090156;28;20040;-60
2021/08/08 06:20:42;;;;;;;14.15;7.53;;;;;;;22.84;71.80;99361.72;5089067;28;20067;-60
2021/08/08 06:23:10;;;;;;;14.38;8.30;;;;;;;22.71;72.43;99350.56;5089983;28;20138;-60
2021/08/08 06:25:37;;;;;;;16.02;7.80;;;;;;;22.69;73.06;99345.38;5090078;28;20192;-60
2021/08/08 06:28:04;;;;;;;14.60;7.95;;;;;;;22.75;73.16;99339.56;5091242;28;20554;-58
2021/08/08 06:30:31;;;;;;;14.73;8.13;;;;;;;22.82;73.51;99357.56;5088662;28;20510;-60
2021/08/08 06:32:57;;;;;;;12.10;8.18;;;;;;;22.83;73.89;99361.84;5103769;28;20506;-59
2021/08/08 06:35:23;;;;;;;11.32;8.35;;;;;;;22.79;74.61;99367.44;5073733;28;20046;-60
2021/08/08 06:37:50;;;;;;;13.57;8.73;;;;;;;22.87;74.71;99366.78;5107525;28;20058;-60
2021/08/08 06:40:16;;;;;;;22.40;9.30;;;;;;;22.92;74.60;99364.53;5086487;28;20047;-58
2021/08/08 06:42:43;;;;;;;15.60;8.52;;;;;;;22.97;74.44;99377.38;5058012;28;20036;-60
2021/08/08 06:45:11;;;;;;;16.63;8.43;;;;;;;22.84;75.02;99387.41;5089859;28;20519;-60
2021/08/08 06:47:39;;;;;;;21.08;9.10;;;;;;;22.77;76.52;99398.53;5089828;28;20645;-60
2021/08/08 06:50:08;;;;;;;15.05;9.18;;;;;;;22.69;77.80;99387.78;5095388;28;20120;-60
2021/08/08 06:52:34;;;;;;;12.93;9.02;;;;;;;22.60;79.61;99388.59;5089115;28;20044;-59
2021/08/08 06:55:01;;;;;;;14.10;9.40;;;;;;;22.54;80.51;99397.09;5089349;28;20048;-60
2021/08/08 06:57:28;;;;;;;11.90;9.55;;;;;;;22.47;83.22;99390.63;5089086;28;20503;-60
2021/08/08 06:59:58;;;;;;;16.13;9.93;;;;;;;22.52;82.62;99395.53;5073590;28;20132;-60
2021/08/08 07:02:27;;;;;;;18.55;10.20;;;;;;;22.66;82.31;99393.31;5089338;28;20527;-60
2021/08/08 07:04:55;;;;;;;17.67;10.20;;;;;;;22.72;82.51;99389.31;5088389;28;20050;-60
2021/08/08 07:07:21;;;;;;;15.82;10.40;;;;;;;22.72;83.29;99391.97;5088545;28;20040;-60
2021/08/08 07:09:47;;;;;;;16.33;11.20;;;;;;;22.75;84.25;99387.25;5088994;28;20519;-60
2021/08/08 07:12:14;;;;;;;16.27;11.18;;;;;;;22.80;84.99;99395.63;5088937;28;20181;-60
2021/08/08 07:14:43;;;;;;;15.63;10.68;;;;;;;22.87;84.83;99389.78;5088925;28;20048;-60
2021/08/08 07:17:10;;;;;;;14.30;11.05;;;;;;;22.91;85.28;99377.94;5071327;28;20503;-60
2021/08/08 07:19:37;;;;;;;19.27;11.20;;;;;;;22.96;85.19;99379.19;5087773;28;20526;-60
2021/08/08 07:22:05;;;;;;;17.30;11.33;;;;;;;23.07;85.18;99380.88;5090505;28;20043;-59
2021/08/08 07:24:33;;;;;;;15.57;10.85;;;;;;;23.09;85.38;99390.34;5071941;28;20036;-59
2021/08/08 07:26:59;;;;;;;14.10;10.52;;;;;;;23.11;86.04;99391.06;5069780;28;20044;-57
2021/08/08 07:29:25;;;;;;;17.65;11.07;;;;;;;23.21;85.84;99383.94;5088607;28;20043;-58
2021/08/08 07:31:53;;;;;;;14.32;11.02;;;;;;;23.31;85.72;99389.25;5089077;28;20089;-58
2021/08/08 07:34:19;;;;;;;13.32;11.20;;;;;;;23.40;85.41;99387.53;5107889;28;20035;-59
2021/08/08 07:36:45;;;;;;;19.88;10.68;;;;;;;23.47;84.83;99381.56;5090983;28;20040;-57
2021/08/08 07:39:11;;;;;;;13.52;9.38;;;;;;;23.48;83.77;99387.72;5086234;28;20427;-58
2021/08/08 07:41:37;;;;;;;15.30;10.60;;;;;;;23.36;84.51;99402.06;5089814;28;20039;-59
2021/08/08 07:44:04;;;;;;;16.65;10.35;;;;;;;23.30;85.29;99398.16;5068336;28;20036;-60
2021/08/08 07:46:30;;;;;;;13.45;9.93;;;;;;;23.18;85.96;99400.16;5068748;28;20391;-60
2021/08/08 07:48:57;;;;;;;16.58;10.40;;;;;;;23.09;86.62;99403.63;5068559;28;20516;-58
2021/08/08 07:51:24;;;;;;;13.55;10.25;;;;;;;23.10;87.02;99405.28;5062802;28;20048;-59
2021/08/08 07:53:50;;;;;;;12.70;9.65;;;;;;;23.19;86.58;99414.22;5087827;28;20036;-58
2021/08/08 07:56:16;;;;;;;15.18;10.15;;;;;;;23.15;87.18;99412.84;5089723;28;20427;-58
2021/08/08 07:58:46;;;;;;;14.23;10.38;;;;;;;23.07;87.87;99418.84;5088291;28;20080;-59
2021/08/08 08:01:13;;;;;;;17.23;11.00;;;;;;;22.99;88.43;99425.78;5088050;28;20071;-59
2021/08/08 08:03:39;;;;;;;13.40;9.40;;;;;;;22.96;88.34;99437.53;5088582;28;20040;-58
2021/08/08 08:06:05;;;;;;;12.25;9.90;;;;;;;22.94;88.68;99446.56;5088149;28;20092;-58
2021/08/08 08:08:31;;;;;;;13.45;9.85;;;;;;;22.98;89.09;99461.22;5088691;28;20538;-59
2021/08/08 08:10:57;;;;;;;15.10;10.38;;;;;;;22.97;89.61;99462.25;5088048;28;20495;-58
2021/08/08 08:13:23;;;;;;;17.58;10.32;;;;;;;22.94;89.71;99463.31;5089123;28;20039;-60
2021/08/08 08:15:48;;;;;;;16.35;10.80;;;;;;;22.81;90.79;99444.19;5088682;28;20172;-60
2021/08/08 08:18:14;;;;;;;16.15;10.40;;;;;;;22.83;91.58;99462.59;5089188;28;20036;-58
2021/08/08 08:20:42;;;;;;;10.48;7.82;;;;;;;22.68;91.84;99448.84;5088833;28;20456;-59
2021/08/08 08:23:08;;;;;;;16.55;9.48;;;;;;;22.44;93.12;99454.50;5087769;28;20051;-59
2021/08/08 08:25:34;;;;;;;17.10;10.48;;;;;;;22.16;97.64;99460.50;5087224;28;20040;-59
2021/08/08 08:28:00;;;;;;;15.52;10.27;;;;;;;21.88;100.00;99462.78;5088003;28;20040;-58
2021/08/08 08:30:26;;;;;;;12.93;9.70;;;;;;;21.78;100.00;99466.34;5089816;28;20036;-59
2021/08/08 08:32:52;;;;;;;12.27;9.10;;;;;;;21.68;100.00;99450.41;5086401;28;20040;-59
2021/08/08 08:35:18;;;;;;;13.90;9.70;;;;;;;21.60;100.00;99454.66;5097281;28;20044;-58
2021/08/08 08:37:44;;;;;;;15.02;9.55;;;;;;;21.58;100.00;99460.09;5078832;28;20541;-58
2021/08/08 08:40:11;;;;;;;11.32;9.25;;;;;;;21.53;100.00;99463.13;5082436;28;20122;-60
2021/08/08 08:42:45;;;;;;;12.25;7.65;;;;;;;21.44;100.00;99463.88;5100848;28;20410;-61
2021/08/08 08:45:12;;;;;;;8.30;6.13;;;;;;;21.36;100.00;99460.16;5085923;28;20138;-60
2021/08/08 08:47:40;;;;;;;9.95;7.90;;;;;;;21.38;100.00;99459.09;5087631;28;20050;-60
2021/08/08 08:50:08;;;;;;;13.00;7.77;;;;;;;21.43;100.00;99464.84;5086646;28;20094;-58
2021/08/08 08:52:35;;;;;;;12.65;8.27;;;;;;;21.38;100.00;99458.25;5084579;28;20503;-60
2021/08/08 08:55:03;;;;;;;12.23;7.55;;;;;;;21.40;100.00;99458.97;5070880;28;20067;-59
2021/08/08 08:57:29;;;;;;;10.20;7.90;;;;;;;21.46;100.00;99453.16;5064804;28;20055;-58
2021/08/08 08:59:58;;;;;;;14.57;9.60;;;;;;;21.54;100.00;99442.78;5084839;28;20072;-59
2021/08/08 09:02:25;;;;;;;11.55;7.70;;;;;;;21.72;100.00;99443.06;5087015;28;20063;-59
2021/08/08 09:04:52;;;;;;;13.32;8.48;;;;;;;21.78;100.00;99446.03;5071668;28;20036;-60
2021/08/08 09:07:17;;;;;;;15.32;9.00;;;;;;;21.88;100.00;99440.78;5090959;28;20043;-59
2021/08/08 09:09:44;;;;;;;10.52;7.47;;;;;;;21.89;100.00;99427.44;5091506;28;20520;-60
2021/08/08 09:12:20;;;;;;;11.95;7.68;;;;;;;22.07;100.00;99440.09;5090448;28;20043;-60
2021/08/08 09:14:56;;;;;;;9.07;7.00;;;;;;;22.25;100.00;99422.63;5089907;28;20055;-59
2021/08/08 09:17:23;;;;;;;10.45;7.35;;;;;;;22.50;95.41;99410.75;5081084;28;20131;-59
2021/08/08 09:19:58;;;;;;;12.85;7.20;;;;;;;23.20;92.36;99431.81;5073155;28;20044;-61
2021/08/08 09:22:27;;;;;;;7.97;7.18;;;;;;;23.76;89.26;99445.22;5074821;28;20040;-59
2021/08/08 09:24:53;;;;;;;7.20;5.70;;;;;;;23.76;81.58;99450.53;5057616;28;20044;-60
2021/08/08 09:27:19;;;;;;;8.65;6.15;;;;;;;23.62;80.05;99458.94;5072660;28;20054;-60
2021/08/08 09:29:49;;;;;;;10.43;6.35;;;;;;;23.61;79.86;99458.09;5076083;28;20468;-60
2021/08/08 09:32:18;;;;;;;;;;;;;;;23.75;78.73;99450.69;5074844;28;20043;-60
2021/08/08 09:34:51;;;;;;;7.05;5.07;;;;;;;23.92;75.39;99437.50;5077185;28;19927;-59
2021/08/08 09:37:19;;;;;;;7.80;5.55;;;;;;;24.05;75.80;99439.88;5085500;28;20040;-60
2021/08/08 09:39:52;;;;;;;9.15;6.10;;;;;;;24.14;75.46;99432.84;5079761;28;20404;-59
2021/08/08 09:42:22;;;;;;;8.02;6.13;;;;;;;24.08;74.93;99439.56;5080799;28;20056;-59
2021/08/08 09:45:06;;;;;;;;;;;;;;;24.18;74.59;99440.41;5083884;28;20395;-60
2021/08/08 09:47:45;;;;;;;7.75;5.90;;;;;;;24.23;73.89;99430.22;5080034;28;20398;-60
2021/08/08 09:50:25;;;;;;;7.25;5.28;;;;;;;24.29;73.57;99424.28;5075718;28;20072;-58
2021/08/08 09:53:01;;;;;;;8.25;5.28;;;;;;;24.31;72.38;99432.97;5084878;28;20048;-60
2021/08/08 09:55:37;;;;;;;7.85;5.68;;;;;;;24.32;72.58;99437.31;5078271;28;20036;-60
2021/08/08 09:58:05;;;;;;;7.35;5.55;;;;;;;24.42;73.07;99443.41;5089676;28;20516;-60
2021/08/08 10:00:39;;;;;;;8.90;6.25;;;;;;;24.58;72.77;99445.44;5079233;28;20087;-60
2021/08/08 10:03:11;;;;;;;9.93;5.97;;;;;;;24.65;72.66;99443.84;5083680;28;20457;-60
2021/08/08 10:05:38;;;;;;;8.23;5.60;;;;;;;24.69;71.67;99433.78;5084373;28;20582;-60
2021/08/08 10:08:08;;;;;;;7.13;6.30;;;;;;;24.94;70.24;99441.06;5080435;28;20037;-60
2021/08/08 10:10:38;;;;;;;6.18;4.97;;;;;;;25.41;67.11;99444.38;5076179;28;20047;-61
2021/08/08 10:13:24;;;;;;;9.07;5.20;;;;;;;26.05;64.08;99446.72;5078794;28;20040;-60
2021/08/08 10:15:51;;;;;;;7.15;5.35;;;;;;;26.72;63.08;99449.59;5073175;28;20147;-61
2021/08/08 10:18:19;;;;;;;11.23;5.07;;;;;;;27.07;61.43;99445.88;5072946;28;20039;-59
2021/08/08 10:20:45;;;;;;;6.85;4.65;;;;;;;26.88;60.53;99450.53;5078235;28;20414;-59
2021/08/08 10:23:16;;;;;;;6.28;4.75;;;;;;;26.42;61.66;99437.63;5075217;28;20037;-59
2021/08/08 10:25:45;;;;;;;10.88;5.18;;;;;;;26.24;62.08;99467.03;5071435;28;20431;-60
2021/08/08 10:28:11;;;;;;;8.60;5.35;;;;;;;26.08;62.26;99462.41;5075080;28;20043;-61
2021/08/08 10:30:38;;;;;;;7.50;4.78;;;;;;;26.18;61.90;99454.28;5079304;28;20068;-60
2021/08/08 10:33:04;;;;;;;8.07;5.43;;;;;;;26.24;61.79;99453.69;5076284;28;20043;-60
2021/08/08 10:35:43;;;;;;;7.93;5.00;;;;;;;26.52;61.37;99454.34;5072692;28;20055;-60
2021/08/08 10:38:09;;;;;;;;;;;;;;;26.61;61.17;99458.72;5086373;28;20123;-60
2021/08/08 10:40:37;;;;;;;6.32;4.97;;;;;;;26.57;60.91;99468.03;5084646;28;20315;-59
2021/08/08 10:43:05;;;;;;;7.13;4.72;;;;;;;26.36;61.63;99468.44;5089511;28;20042;-59
2021/08/08 10:45:33;;;;;;;7.97;4.80;;;;;;;26.12;61.27;99453.09;5090527;28;20043;-58
2021/08/08 10:48:04;;;;;;;7.35;4.65;;;;;;;25.91;61.47;99455.28;5090475;28;20535;-59
2021/08/08 10:50:47;;;;;;;7.80;4.70;;;;;;;25.87;61.70;99459.25;5090766;28;20072;-60
2021/08/08 10:53:23;;;;;;;7.47;5.03;;;;;;;25.80;61.32;99465.38;5088617;28;20035;-60
2021/08/08 10:56:01;;;;;;;9.75;4.93;;;;;;;25.75;61.81;99463.13;5087604;28;20152;-59
2021/08/08 10:58:32;;;;;;;6.45;4.95;;;;;;;25.67;62.58;99463.94;5088311;28;20044;-61
2021/08/08 11:00:57;;;;;;;5.30;4.80;;;;;;;25.69;62.69;99461.97;5068884;28;20467;-60
2021/08/08 11:03:23;;;;;;;9.30;5.20;;;;;;;25.66;62.95;99459.59;5089830;28;20089;-59
2021/08/08 11:05:52;;;;;;;10.45;5.03;;;;;;;25.64;63.24;99464.25;5089953;28;20529;-61
2021/08/08 11:08:22;;;;;;;6.57;4.88;;;;;;;25.57;62.99;99463.19;5084645;28;20128;-61
2021/08/08 11:10:48;;;;;;;7.35;4.80;;;;;;;25.50;63.05;99462.06;5088302;28;20063;-59
2021/08/08 11:13:23;;;;;;;9.63;4.78;;;;;;;25.58;63.57;99456.03;5089971;28;20071;-61
2021/08/08 11:15:51;;;;;;;6.30;4.82;;;;;;;25.61;63.12;99453.06;5088006;28;20051;-61
2021/08/08 11:18:17;;;;;;;7.05;4.88;;;;;;;25.75;62.81;99451.69;5089983;28;20032;-60
2021/08/08 11:20:45;;;;;;;9.07;4.97;;;;;;;25.79;62.14;99440.56;5089747;28;20578;-60
2021/08/08 11:23:11;;;;;;;6.15;4.75;;;;;;;26.02;61.41;99457.69;5090331;28;20123;-59
2021/08/08 11:25:42;;;;;;;6.93;5.10;;;;;;;26.20;61.00;99460.31;5089887;28;20126;-61
2021/08/08 11:28:10;;;;;;;6.70;4.53;;;;;;;26.40;59.96;99468.94;5086839;28;20051;-59
2021/08/08 11:30:44;;;;;;;7.70;4.80;;;;;;;26.46;59.86;99473.66;5090154;28;20044;-61